sensor_id;sensor_type;location;lat;lon;timestamp;pressure;altitude;pressure_sealevel;temperature;humidity
77366;BME280;66430;50.182;11.704;2023-05-23T00:00:18;94346.04;;;19.53;38.09
77366;BME280;66430;50.182;11.704;2023-05-23T00:02:42;94347.76;;;19.66;37.79
77366;BME280;66430;50.182;11.704;2023-05-23T00:05:08;94351.17;;;19.56;37.61
77366;BME280;66430;50.182;11.704;2023-05-23T00:07:33;94353.76;;;19.73;37.78
77366;BME280;66430;50.182;11.704;2023-05-23T00:09:59;94356.38;;;19.80;37.71
77366;BME280;66430;50.182;11.704;2023-05-23T00:12:24;94356.84;;;19.59;38.18
77366;BME280;66430;50.182;11.704;2023-05-23T00:14:49;94360.26;;;19.63;38.05
77366;BME280;66430;50.182;11.704;2023-05-23T00:17:19;94359.30;;;19.72;37.89
77366;BME280;66430;50.182;11.704;2023-05-23T00:19:42;94360.82;;;19.77;38.36
77366;BME280;66430;50.182;11.704;2023-05-23T00:22:06;94359.88;;;19.84;38.21
77366;BME280;66430;50.182;11.704;2023-05-23T00:24:31;94356.76;;;19.52;38.44
77366;BME280;66430;50.182;11.704;2023-05-23T00:26:56;94354.46;;;19.59;38.29
77366;BME280;66430;50.182;11.704;2023-05-23T00:29:22;94354.82;;;19.67;38.19
77366;BME280;66430;50.182;11.704;2023-05-23T00:31:48;94356.02;;;19.83;38.14
77366;BME280;66430;50.182;11.704;2023-05-23T00:34:13;94354.32;;;19.65;38.09
77366;BME280;66430;50.182;11.704;2023-05-23T00:36:38;94353.83;;;19.64;38.16
77366;BME280;66430;50.182;11.704;2023-05-23T00:39:03;94349.15;;;19.69;37.94
77366;BME280;66430;50.182;11.704;2023-05-23T00:41:29;94351.63;;;19.71;37.89
77366;BME280;66430;50.182;11.704;2023-05-23T00:43:54;94358.63;;;19.36;38.14
77366;BME280;66430;50.182;11.704;2023-05-23T00:46:20;94363.02;;;19.66;38.52
77366;BME280;66430;50.182;11.704;2023-05-23T00:48:44;94362.98;;;19.69;38.70
77366;BME280;66430;50.182;11.704;2023-05-23T00:51:10;94366.60;;;19.54;38.42
77366;BME280;66430;50.182;11.704;2023-05-23T00:53:35;94372.02;;;19.40;38.76
77366;BME280;66430;50.182;11.704;2023-05-23T00:56:01;94379.70;;;19.35;38.85
77366;BME280;66430;50.182;11.704;2023-05-23T00:58:26;94372.07;;;19.46;39.01
77366;BME280;66430;50.182;11.704;2023-05-23T01:00:51;94371.57;;;18.99;38.99
77366;BME280;66430;50.182;11.704;2023-05-23T01:03:17;94368.83;;;19.54;38.91
77366;BME280;66430;50.182;11.704;2023-05-23T01:05:41;94372.91;;;19.16;39.14
77366;BME280;66430;50.182;11.704;2023-05-23T01:08:07;94369.26;;;19.47;39.15
77366;BME280;66430;50.182;11.704;2023-05-23T01:10:33;94370.25;;;19.46;39.33
77366;BME280;66430;50.182;11.704;2023-05-23T01:13:07;94371.22;;;19.37;39.04
77366;BME280;66430;50.182;11.704;2023-05-23T01:15:28;94369.57;;;19.29;39.28
77366;BME280;66430;50.182;11.704;2023-05-23T01:17:52;94368.74;;;19.34;39.17
77366;BME280;66430;50.182;11.704;2023-05-23T01:20:18;94363.69;;;19.65;39.00
77366;BME280;66430;50.182;11.704;2023-05-23T01:22:53;94367.70;;;19.62;39.19
77366;BME280;66430;50.182;11.704;2023-05-23T01:25:10;94366.71;;;19.75;39.14
77366;BME280;66430;50.182;11.704;2023-05-23T01:27:43;94369.32;;;19.18;39.96
77366;BME280;66430;50.182;11.704;2023-05-23T01:29:57;94370.70;;;18.92;40.79
77366;BME280;66430;50.182;11.704;2023-05-23T01:32:24;94368.50;;;18.20;41.69
77366;BME280;66430;50.182;11.704;2023-05-23T01:34:48;94361.39;;;18.48;41.58
77366;BME280;66430;50.182;11.704;2023-05-23T01:37:13;94361.72;;;18.63;41.73
77366;BME280;66430;50.182;11.704;2023-05-23T01:39:38;94359.39;;;19.10;41.33
77366;BME280;66430;50.182;11.704;2023-05-23T01:42:04;94353.42;;;18.66;41.61
77366;BME280;66430;50.182;11.704;2023-05-23T01:44:29;94352.45;;;18.71;41.60
77366;BME280;66430;50.182;11.704;2023-05-23T01:46:54;94350.04;;;18.48;41.63
77366;BME280;66430;50.182;11.704;2023-05-23T01:49:21;94346.68;;;18.37;41.92
77366;BME280;66430;50.182;11.704;2023-05-23T01:51:45;94347.04;;;18.51;41.63
77366;BME280;66430;50.182;11.704;2023-05-23T01:54:12;94347.24;;;18.70;41.42
77366;BME280;66430;50.182;11.704;2023-05-23T01:56:39;94341.37;;;18.50;41.74
77366;BME280;66430;50.182;11.704;2023-05-23T01:59:02;94339.98;;;18.67;41.54
77366;BME280;66430;50.182;11.704;2023-05-23T02:01:28;94339.29;;;18.72;41.49
77366;BME280;66430;50.182;11.704;2023-05-23T02:03:53;94342.42;;;18.66;41.15
77366;BME280;66430;50.182;11.704;2023-05-23T02:06:19;94339.79;;;19.12;41.36
77366;BME280;66430;50.182;11.704;2023-05-23T02:08:44;94338.22;;;18.95;41.12
77366;BME280;66430;50.182;11.704;2023-05-23T02:11:10;94338.18;;;19.02;41.02
77366;BME280;66430;50.182;11.704;2023-05-23T02:13:37;94339.36;;;19.06;41.12
77366;BME280;66430;50.182;11.704;2023-05-23T02:16:01;94343.91;;;18.89;41.49
77366;BME280;66430;50.182;11.704;2023-05-23T02:18:26;94346.73;;;19.07;40.98
77366;BME280;66430;50.182;11.704;2023-05-23T02:20:51;94347.54;;;18.92;41.33
77366;BME280;66430;50.182;11.704;2023-05-23T02:23:17;94347.21;;;19.05;41.08
77366;BME280;66430;50.182;11.704;2023-05-23T02:25:42;94350.86;;;19.06;41.06
77366;BME280;66430;50.182;11.704;2023-05-23T02:28:07;94349.09;;;19.13;40.88
77366;BME280;66430;50.182;11.704;2023-05-23T02:30:33;94349.87;;;18.78;41.05
77366;BME280;66430;50.182;11.704;2023-05-23T02:32:57;94348.19;;;19.02;41.14
77366;BME280;66430;50.182;11.704;2023-05-23T02:35:23;94349.58;;;18.98;41.20
77366;BME280;66430;50.182;11.704;2023-05-23T02:37:48;94348.11;;;19.12;40.86
77366;BME280;66430;50.182;11.704;2023-05-23T02:40:13;94347.90;;;19.16;40.62
77366;BME280;66430;50.182;11.704;2023-05-23T02:42:39;94347.84;;;19.09;40.86
77366;BME280;66430;50.182;11.704;2023-05-23T02:45:05;94344.30;;;19.11;40.84
77366;BME280;66430;50.182;11.704;2023-05-23T02:47:30;94343.68;;;19.26;40.52
77366;BME280;66430;50.182;11.704;2023-05-23T02:49:55;94346.26;;;19.29;40.43
77366;BME280;66430;50.182;11.704;2023-05-23T02:52:20;94347.64;;;19.31;40.38
77366;BME280;66430;50.182;11.704;2023-05-23T02:54:46;94346.38;;;19.21;40.63
77366;BME280;66430;50.182;11.704;2023-05-23T02:57:17;94344.70;;;19.30;40.49
77366;BME280;66430;50.182;11.704;2023-05-23T02:59:37;94342.35;;;19.42;40.13
77366;BME280;66430;50.182;11.704;2023-05-23T03:02:02;94342.39;;;19.19;40.07
77366;BME280;66430;50.182;11.704;2023-05-23T03:04:28;94345.40;;;19.07;40.61
77366;BME280;66430;50.182;11.704;2023-05-23T03:06:53;94343.16;;;19.34;40.36
77366;BME280;66430;50.182;11.704;2023-05-23T03:09:19;94342.94;;;19.15;40.17
77366;BME280;66430;50.182;11.704;2023-05-23T03:11:43;94344.70;;;19.40;39.77
77366;BME280;66430;50.182;11.704;2023-05-23T03:14:09;94347.40;;;19.18;39.78
77366;BME280;66430;50.182;11.704;2023-05-23T03:16:34;94351.01;;;19.44;39.46
77366;BME280;66430;50.182;11.704;2023-05-23T03:18:59;94353.43;;;19.19;39.71
77366;BME280;66430;50.182;11.704;2023-05-23T03:21:24;94355.56;;;19.44;39.55
77366;BME280;66430;50.182;11.704;2023-05-23T03:23:50;94358.94;;;19.46;39.40
77366;BME280;66430;50.182;11.704;2023-05-23T03:26:16;94361.83;;;19.45;39.93
77366;BME280;66430;50.182;11.704;2023-05-23T03:28:41;94365.89;;;19.19;40.14
77366;BME280;66430;50.182;11.704;2023-05-23T03:31:07;94370.51;;;19.13;40.77
77366;BME280;66430;50.182;11.704;2023-05-23T03:33:33;94375.77;;;19.20;40.72
77366;BME280;66430;50.182;11.704;2023-05-23T03:35:57;94379.84;;;19.00;41.07
77366;BME280;66430;50.182;11.704;2023-05-23T03:38:25;94379.54;;;18.91;41.08
77366;BME280;66430;50.182;11.704;2023-05-23T03:40:48;94378.30;;;18.94;40.92
77366;BME280;66430;50.182;11.704;2023-05-23T03:43:14;94376.28;;;18.89;41.14
77366;BME280;66430;50.182;11.704;2023-05-23T03:45:39;94377.12;;;18.95;41.01
77366;BME280;66430;50.182;11.704;2023-05-23T03:48:04;94379.38;;;19.03;40.93
77366;BME280;66430;50.182;11.704;2023-05-23T03:50:30;94384.23;;;18.88;40.57
77366;BME280;66430;50.182;11.704;2023-05-23T03:52:55;94386.95;;;19.19;40.40
77366;BME280;66430;50.182;11.704;2023-05-23T03:55:21;94386.40;;;19.00;40.15
77366;BME280;66430;50.182;11.704;2023-05-23T03:57:46;94387.90;;;19.25;40.47
77366;BME280;66430;50.182;11.704;2023-05-23T04:00:12;94388.27;;;19.22;40.68
77366;BME280;66430;50.182;11.704;2023-05-23T04:02:39;94388.98;;;19.21;40.77
77366;BME280;66430;50.182;11.704;2023-05-23T04:05:02;94390.19;;;19.21;40.85
77366;BME280;66430;50.182;11.704;2023-05-23T04:07:27;94392.84;;;18.79;41.14
77366;BME280;66430;50.182;11.704;2023-05-23T04:09:52;94396.91;;;19.08;41.16
77366;BME280;66430;50.182;11.704;2023-05-23T04:12:17;94398.76;;;19.01;41.15
77366;BME280;66430;50.182;11.704;2023-05-23T04:14:43;94402.97;;;19.03;41.29
77366;BME280;66430;50.182;11.704;2023-05-23T04:17:08;94408.92;;;19.10;41.25
77366;BME280;66430;50.182;11.704;2023-05-23T04:19:33;94409.68;;;18.80;41.34
77366;BME280;66430;50.182;11.704;2023-05-23T04:21:58;94411.31;;;18.87;41.24
77366;BME280;66430;50.182;11.704;2023-05-23T04:24:24;94411.97;;;19.27;40.79
77366;BME280;66430;50.182;11.704;2023-05-23T04:26:49;94416.16;;;19.02;40.89
77366;BME280;66430;50.182;11.704;2023-05-23T04:29:15;94415.14;;;19.26;40.77
77366;BME280;66430;50.182;11.704;2023-05-23T04:31:40;94415.35;;;19.23;40.88
77366;BME280;66430;50.182;11.704;2023-05-23T04:34:06;94413.34;;;19.06;40.97
77366;BME280;66430;50.182;11.704;2023-05-23T04:36:31;94417.34;;;19.11;40.82
77366;BME280;66430;50.182;11.704;2023-05-23T04:38:58;94420.80;;;19.30;40.08
77366;BME280;66430;50.182;11.704;2023-05-23T04:41:25;94419.27;;;19.04;40.60
77366;BME280;66430;50.182;11.704;2023-05-23T04:43:48;94422.78;;;19.30;40.06
77366;BME280;66430;50.182;11.704;2023-05-23T04:46:14;94424.40;;;19.59;39.86
77366;BME280;66430;50.182;11.704;2023-05-23T04:48:39;94425.41;;;19.23;40.06
77366;BME280;66430;50.182;11.704;2023-05-23T04:51:05;94422.51;;;18.87;40.45
77366;BME280;66430;50.182;11.704;2023-05-23T04:53:29;94425.43;;;19.34;39.93
77366;BME280;66430;50.182;11.704;2023-05-23T04:55:55;94426.79;;;18.93;40.36
77366;BME280;66430;50.182;11.704;2023-05-23T04:58:20;94428.63;;;18.93;40.37
77366;BME280;66430;50.182;11.704;2023-05-23T05:00:46;94433.04;;;19.06;40.17
77366;BME280;66430;50.182;11.704;2023-05-23T05:03:11;94426.08;;;19.22;39.77
77366;BME280;66430;50.182;11.704;2023-05-23T05:05:36;94428.48;;;18.71;40.55
77366;BME280;66430;50.182;11.704;2023-05-23T05:08:01;94429.61;;;18.80;40.34
77366;BME280;66430;50.182;11.704;2023-05-23T05:10:29;94433.68;;;18.78;40.55
77366;BME280;66430;50.182;11.704;2023-05-23T05:12:52;94429.04;;;18.62;41.01
77366;BME280;66430;50.182;11.704;2023-05-23T05:15:18;94431.95;;;18.80;41.08
77366;BME280;66430;50.182;11.704;2023-05-23T05:17:43;94434.04;;;18.28;41.10
77366;BME280;66430;50.182;11.704;2023-05-23T05:20:10;94430.25;;;18.29;41.27
77366;BME280;66430;50.182;11.704;2023-05-23T05:22:34;94432.73;;;18.63;41.05
77366;BME280;66430;50.182;11.704;2023-05-23T05:24:59;94436.87;;;18.70;41.33
77366;BME280;66430;50.182;11.704;2023-05-23T05:27:24;94434.44;;;18.46;41.01
77366;BME280;66430;50.182;11.704;2023-05-23T05:29:49;94435.61;;;18.54;40.70
77366;BME280;66430;50.182;11.704;2023-05-23T05:32:15;94438.68;;;19.01;40.87
77366;BME280;66430;50.182;11.704;2023-05-23T05:34:40;94433.72;;;18.44;41.23
77366;BME280;66430;50.182;11.704;2023-05-23T05:37:06;94438.45;;;18.86;40.92
77366;BME280;66430;50.182;11.704;2023-05-23T05:39:31;94434.12;;;18.67;40.93
77366;BME280;66430;50.182;11.704;2023-05-23T05:41:57;94432.84;;;18.74;40.82
77366;BME280;66430;50.182;11.704;2023-05-23T05:44:22;94434.92;;;18.61;42.16
77366;BME280;66430;50.182;11.704;2023-05-23T05:46:47;94432.73;;;18.87;41.26
77366;BME280;66430;50.182;11.704;2023-05-23T05:49:16;94433.83;;;18.85;40.70
77366;BME280;66430;50.182;11.704;2023-05-23T05:51:39;94435.46;;;18.98;40.61
77366;BME280;66430;50.182;11.704;2023-05-23T05:54:04;94440.33;;;18.56;41.18
77366;BME280;66430;50.182;11.704;2023-05-23T05:56:32;94440.12;;;19.18;39.94
77366;BME280;66430;50.182;11.704;2023-05-23T05:58:55;94441.39;;;19.14;40.08
77366;BME280;66430;50.182;11.704;2023-05-23T06:01:20;94440.24;;;19.32;40.06
77366;BME280;66430;50.182;11.704;2023-05-23T06:03:45;94442.19;;;18.67;40.57
77366;BME280;66430;50.182;11.704;2023-05-23T06:06:11;94444.65;;;18.87;40.60
77366;BME280;66430;50.182;11.704;2023-05-23T06:08:36;94446.34;;;19.00;40.57
77366;BME280;66430;50.182;11.704;2023-05-23T06:11:02;94449.98;;;19.05;41.89
77366;BME280;66430;50.182;11.704;2023-05-23T06:13:27;94458.44;;;19.11;40.29
77366;BME280;66430;50.182;11.704;2023-05-23T06:15:52;94461.05;;;19.12;40.43
77366;BME280;66430;50.182;11.704;2023-05-23T06:18:18;94463.63;;;18.94;41.37
77366;BME280;66430;50.182;11.704;2023-05-23T06:20:43;94468.78;;;19.27;39.68
77366;BME280;66430;50.182;11.704;2023-05-23T06:23:08;94473.97;;;18.79;40.29
77366;BME280;66430;50.182;11.704;2023-05-23T06:25:34;94470.21;;;18.78;40.31
77366;BME280;66430;50.182;11.704;2023-05-23T06:28:00;94469.49;;;18.86;40.41
77366;BME280;66430;50.182;11.704;2023-05-23T06:30:24;94462.97;;;19.23;39.65
77366;BME280;66430;50.182;11.704;2023-05-23T06:32:50;94466.13;;;19.23;39.54
77366;BME280;66430;50.182;11.704;2023-05-23T06:35:15;94464.09;;;19.39;39.38
77366;BME280;66430;50.182;11.704;2023-05-23T06:37:41;94472.06;;;19.53;39.14
77366;BME280;66430;50.182;11.704;2023-05-23T06:40:07;94477.24;;;19.54;39.14
77366;BME280;66430;50.182;11.704;2023-05-23T06:42:32;94474.52;;;19.17;39.46
77366;BME280;66430;50.182;11.704;2023-05-23T06:44:58;94473.09;;;19.39;39.11
77366;BME280;66430;50.182;11.704;2023-05-23T06:47:23;94472.49;;;19.54;39.54
77366;BME280;66430;50.182;11.704;2023-05-23T06:49:49;94478.01;;;19.63;38.64
77366;BME280;66430;50.182;11.704;2023-05-23T06:52:14;94476.18;;;19.41;38.47
77366;BME280;66430;50.182;11.704;2023-05-23T06:54:40;94482.00;;;19.70;38.65
77366;BME280;66430;50.182;11.704;2023-05-23T06:57:04;94480.37;;;19.79;38.45
77366;BME280;66430;50.182;11.704;2023-05-23T06:59:29;94477.75;;;19.55;38.75
77366;BME280;66430;50.182;11.704;2023-05-23T07:01:55;94479.50;;;19.75;39.16
77366;BME280;66430;50.182;11.704;2023-05-23T07:04:19;94484.46;;;19.37;38.99
77366;BME280;66430;50.182;11.704;2023-05-23T07:06:46;94480.33;;;19.78;38.47
77366;BME280;66430;50.182;11.704;2023-05-23T07:09:11;94482.51;;;19.79;38.32
77366;BME280;66430;50.182;11.704;2023-05-23T07:11:36;94478.39;;;19.43;38.57
77366;BME280;66430;50.182;11.704;2023-05-23T07:14:01;94479.11;;;19.49;38.57
77366;BME280;66430;50.182;11.704;2023-05-23T07:16:28;94478.42;;;19.93;38.09
77366;BME280;66430;50.182;11.704;2023-05-23T07:18:52;94479.38;;;19.78;37.71
77366;BME280;66430;50.182;11.704;2023-05-23T07:21:18;94477.86;;;19.32;39.21
77366;BME280;66430;50.182;11.704;2023-05-23T07:23:43;94481.29;;;19.85;37.96
77366;BME280;66430;50.182;11.704;2023-05-23T07:26:09;94476.21;;;19.90;37.88
77366;BME280;66430;50.182;11.704;2023-05-23T07:28:34;94478.28;;;19.94;37.59
77366;BME280;66430;50.182;11.704;2023-05-23T07:31:00;94483.40;;;20.05;37.67
77366;BME280;66430;50.182;11.704;2023-05-23T07:33:24;94483.65;;;19.84;39.14
77366;BME280;66430;50.182;11.704;2023-05-23T07:35:50;94485.20;;;19.70;38.96
77366;BME280;66430;50.182;11.704;2023-05-23T07:38:15;94485.46;;;19.90;38.18
77366;BME280;66430;50.182;11.704;2023-05-23T07:40:41;94487.61;;;20.19;37.81
77366;BME280;66430;50.182;11.704;2023-05-23T07:43:07;94488.76;;;20.10;37.25
77366;BME280;66430;50.182;11.704;2023-05-23T07:45:33;94490.65;;;19.82;37.72
77366;BME280;66430;50.182;11.704;2023-05-23T07:47:59;94492.55;;;19.41;37.76
77366;BME280;66430;50.182;11.704;2023-05-23T07:50:23;94486.72;;;19.55;37.69
77366;BME280;66430;50.182;11.704;2023-05-23T07:52:49;94488.54;;;19.49;38.43
77366;BME280;66430;50.182;11.704;2023-05-23T07:55:15;94494.11;;;19.75;37.71
77366;BME280;66430;50.182;11.704;2023-05-23T07:57:39;94493.65;;;19.98;37.11
77366;BME280;66430;50.182;11.704;2023-05-23T08:00:06;94490.71;;;19.61;36.98
77366;BME280;66430;50.182;11.704;2023-05-23T08:02:30;94490.37;;;19.58;37.38
77366;BME280;66430;50.182;11.704;2023-05-23T08:04:55;94486.07;;;19.63;37.89
77366;BME280;66430;50.182;11.704;2023-05-23T08:07:20;94494.62;;;20.02;36.90
77366;BME280;66430;50.182;11.704;2023-05-23T08:09:46;94494.04;;;19.88;36.69
77366;BME280;66430;50.182;11.704;2023-05-23T08:12:11;94493.48;;;19.90;36.98
77366;BME280;66430;50.182;11.704;2023-05-23T08:14:36;94497.04;;;19.72;37.47
77366;BME280;66430;50.182;11.704;2023-05-23T08:17:01;94499.50;;;19.62;38.09
77366;BME280;66430;50.182;11.704;2023-05-23T08:19:27;94500.24;;;19.69;37.40
77366;BME280;66430;50.182;11.704;2023-05-23T08:21:52;94503.87;;;20.13;37.13
77366;BME280;66430;50.182;11.704;2023-05-23T08:24:18;94502.73;;;20.42;35.55
77366;BME280;66430;50.182;11.704;2023-05-23T08:26:43;94506.90;;;19.81;39.36
77366;BME280;66430;50.182;11.704;2023-05-23T08:29:08;94502.11;;;20.49;35.69
77366;BME280;66430;50.182;11.704;2023-05-23T08:31:34;94505.16;;;20.57;35.69
77366;BME280;66430;50.182;11.704;2023-05-23T08:33:59;94509.12;;;20.72;36.50
77366;BME280;66430;50.182;11.704;2023-05-23T08:36:24;94512.99;;;20.51;36.14
77366;BME280;66430;50.182;11.704;2023-05-23T08:38:51;94513.48;;;20.61;36.97
77366;BME280;66430;50.182;11.704;2023-05-23T08:41:18;94514.54;;;21.10;36.09
77366;BME280;66430;50.182;11.704;2023-05-23T08:43:40;94517.97;;;20.59;36.70
77366;BME280;66430;50.182;11.704;2023-05-23T08:46:05;94516.97;;;20.75;36.57
77366;BME280;66430;50.182;11.704;2023-05-23T08:48:33;94521.32;;;20.80;37.40
77366;BME280;66430;50.182;11.704;2023-05-23T08:50:58;94524.70;;;20.96;35.92
77366;BME280;66430;50.182;11.704;2023-05-23T08:53:25;94528.43;;;20.75;37.25
77366;BME280;66430;50.182;11.704;2023-05-23T08:55:49;94529.15;;;20.84;37.85
77366;BME280;66430;50.182;11.704;2023-05-23T08:58:14;94532.04;;;20.81;36.34
77366;BME280;66430;50.182;11.704;2023-05-23T09:00:40;94526.13;;;21.64;35.25
77366;BME280;66430;50.182;11.704;2023-05-23T09:03:05;94532.39;;;20.89;36.95
77366;BME280;66430;50.182;11.704;2023-05-23T09:05:31;94536.39;;;20.81;36.04
77366;BME280;66430;50.182;11.704;2023-05-23T09:07:56;94540.21;;;20.74;36.00
77366;BME280;66430;50.182;11.704;2023-05-23T09:10:22;94539.55;;;21.74;34.76
77366;BME280;66430;50.182;11.704;2023-05-23T09:12:47;94538.13;;;21.67;35.28
77366;BME280;66430;50.182;11.704;2023-05-23T09:15:13;94538.70;;;21.50;33.73
77366;BME280;66430;50.182;11.704;2023-05-23T09:17:37;94539.47;;;20.93;35.48
77366;BME280;66430;50.182;11.704;2023-05-23T09:20:03;94545.65;;;20.87;34.54
77366;BME280;66430;50.182;11.704;2023-05-23T09:22:28;94545.21;;;20.59;35.58
77366;BME280;66430;50.182;11.704;2023-05-23T09:24:56;94547.49;;;20.66;35.65
77366;BME280;66430;50.182;11.704;2023-05-23T09:27:19;94544.19;;;21.09;35.07
77366;BME280;66430;50.182;11.704;2023-05-23T09:29:45;94543.47;;;21.46;34.88
77366;BME280;66430;50.182;11.704;2023-05-23T09:32:12;94544.09;;;21.75;33.74
77366;BME280;66430;50.182;11.704;2023-05-23T09:34:40;94541.14;;;21.83;32.77
77366;BME280;66430;50.182;11.704;2023-05-23T09:37:03;94541.61;;;21.55;32.39
77366;BME280;66430;50.182;11.704;2023-05-23T09:39:27;94547.43;;;21.43;33.95
77366;BME280;66430;50.182;11.704;2023-05-23T09:41:52;94543.73;;;21.77;32.01
77366;BME280;66430;50.182;11.704;2023-05-23T09:44:22;94544.94;;;21.19;33.48
77366;BME280;66430;50.182;11.704;2023-05-23T09:46:43;94546.55;;;21.47;32.78
77366;BME280;66430;50.182;11.704;2023-05-23T09:49:15;94551.48;;;21.35;31.65
77366;BME280;66430;50.182;11.704;2023-05-23T09:51:33;94555.28;;;21.57;32.56
77366;BME280;66430;50.182;11.704;2023-05-23T09:53:58;94553.05;;;21.27;34.33
77366;BME280;66430;50.182;11.704;2023-05-23T09:56:25;94551.75;;;21.50;32.07
77366;BME280;66430;50.182;11.704;2023-05-23T09:58:50;94556.10;;;21.46;32.13
77366;BME280;66430;50.182;11.704;2023-05-23T10:01:15;94554.97;;;21.57;32.37
77366;BME280;66430;50.182;11.704;2023-05-23T10:03:44;94558.25;;;21.56;32.08
77366;BME280;66430;50.182;11.704;2023-05-23T10:06:09;94556.28;;;21.42;33.05
77366;BME280;66430;50.182;11.704;2023-05-23T10:08:36;94562.43;;;21.30;33.15
77366;BME280;66430;50.182;11.704;2023-05-23T10:13:24;94564.78;;;21.31;32.92
77366;BME280;66430;50.182;11.704;2023-05-23T10:15:49;94571.36;;;21.37;32.28
77366;BME280;66430;50.182;11.704;2023-05-23T10:18:17;94574.70;;;21.08;31.68
77366;BME280;66430;50.182;11.704;2023-05-23T10:20:39;94575.37;;;20.91;32.48
77366;BME280;66430;50.182;11.704;2023-05-23T10:23:03;94577.91;;;20.77;32.19
77366;BME280;66430;50.182;11.704;2023-05-23T10:25:29;94575.99;;;20.55;33.13
77366;BME280;66430;50.182;11.704;2023-05-23T10:27:55;94574.54;;;20.66;32.52
77366;BME280;66430;50.182;11.704;2023-05-23T10:30:19;94577.93;;;20.52;33.10
77366;BME280;66430;50.182;11.704;2023-05-23T10:32:44;94577.91;;;20.61;32.48
77366;BME280;66430;50.182;11.704;2023-05-23T10:35:16;94573.28;;;20.14;33.88
77366;BME280;66430;50.182;11.704;2023-05-23T10:37:39;94575.02;;;20.28;34.02
77366;BME280;66430;50.182;11.704;2023-05-23T10:40:04;94574.71;;;20.78;32.99
77366;BME280;66430;50.182;11.704;2023-05-23T10:42:34;94576.62;;;21.05;33.01
77366;BME280;66430;50.182;11.704;2023-05-23T10:44:51;94572.58;;;20.40;35.01
77366;BME280;66430;50.182;11.704;2023-05-23T10:47:25;94575.93;;;20.89;34.05
77366;BME280;66430;50.182;11.704;2023-05-23T10:49:43;94575.36;;;21.07;31.84
77366;BME280;66430;50.182;11.704;2023-05-23T10:52:08;94576.89;;;21.06;33.07
77366;BME280;66430;50.182;11.704;2023-05-23T10:54:34;94576.66;;;21.13;33.46
77366;BME280;66430;50.182;11.704;2023-05-23T10:57:02;94579.35;;;21.42;32.48
77366;BME280;66430;50.182;11.704;2023-05-23T10:59:27;94584.25;;;21.29;32.29
77366;BME280;66430;50.182;11.704;2023-05-23T11:01:50;94590.07;;;20.82;30.93
77366;BME280;66430;50.182;11.704;2023-05-23T11:04:13;94589.59;;;20.84;30.67
77366;BME280;66430;50.182;11.704;2023-05-23T11:06:40;94592.04;;;20.97;31.03
77366;BME280;66430;50.182;11.704;2023-05-23T11:09:05;94594.64;;;21.04;31.21
77366;BME280;66430;50.182;11.704;2023-05-23T11:13:57;94588.49;;;20.50;30.87
77366;BME280;66430;50.182;11.704;2023-05-23T11:16:26;94586.21;;;20.96;31.82
77366;BME280;66430;50.182;11.704;2023-05-23T11:18:45;94586.19;;;21.10;33.43
77366;BME280;66430;50.182;11.704;2023-05-23T11:21:10;94585.28;;;21.49;29.93
77366;BME280;66430;50.182;11.704;2023-05-23T11:23:40;94591.29;;;21.19;29.76
77366;BME280;66430;50.182;11.704;2023-05-23T11:26:00;94587.24;;;21.01;30.59
77366;BME280;66430;50.182;11.704;2023-05-23T11:28:26;94584.87;;;21.33;30.02
77366;BME280;66430;50.182;11.704;2023-05-23T11:30:51;94587.01;;;21.64;29.74
77366;BME280;66430;50.182;11.704;2023-05-23T11:33:17;94585.11;;;21.33;30.29
77366;BME280;66430;50.182;11.704;2023-05-23T11:35:43;94584.95;;;21.06;29.45
77366;BME280;66430;50.182;11.704;2023-05-23T11:38:08;94585.48;;;20.41;31.92
77366;BME280;66430;50.182;11.704;2023-05-23T11:40:34;94596.59;;;20.57;30.14
77366;BME280;66430;50.182;11.704;2023-05-23T11:42:58;94590.93;;;20.70;30.18
77366;BME280;66430;50.182;11.704;2023-05-23T11:45:24;94589.59;;;20.82;30.53
77366;BME280;66430;50.182;11.704;2023-05-23T11:47:49;94584.74;;;20.40;31.49
77366;BME280;66430;50.182;11.704;2023-05-23T11:50:15;94583.30;;;20.73;30.94
77366;BME280;66430;50.182;11.704;2023-05-23T11:52:38;94587.27;;;20.76;31.60
77366;BME280;66430;50.182;11.704;2023-05-23T11:55:06;94591.10;;;21.11;29.54
77366;BME280;66430;50.182;11.704;2023-05-23T11:57:29;94591.71;;;20.52;29.25
77366;BME280;66430;50.182;11.704;2023-05-23T11:59:59;94597.82;;;20.64;29.90
77366;BME280;66430;50.182;11.704;2023-05-23T12:02:20;94595.11;;;20.43;30.57
77366;BME280;66430;50.182;11.704;2023-05-23T12:04:45;94591.34;;;20.35;30.54
77366;BME280;66430;50.182;11.704;2023-05-23T12:07:10;94597.93;;;20.79;30.65
77366;BME280;66430;50.182;11.704;2023-05-23T12:09:42;94598.84;;;20.59;31.40
77366;BME280;66430;50.182;11.704;2023-05-23T12:12:01;94601.78;;;20.41;30.55
77366;BME280;66430;50.182;11.704;2023-05-23T12:14:28;94601.38;;;20.66;30.61
77366;BME280;66430;50.182;11.704;2023-05-23T12:16:52;94600.78;;;21.04;31.05
77366;BME280;66430;50.182;11.704;2023-05-23T12:19:17;94601.96;;;20.12;30.77
77366;BME280;66430;50.182;11.704;2023-05-23T12:21:44;94602.22;;;20.53;30.87
77366;BME280;66430;50.182;11.704;2023-05-23T12:24:15;94596.44;;;20.49;32.17
77366;BME280;66430;50.182;11.704;2023-05-23T12:28:58;94596.92;;;20.20;32.09
77366;BME280;66430;50.182;11.704;2023-05-23T12:31:24;94601.31;;;20.71;31.00
77366;BME280;66430;50.182;11.704;2023-05-23T12:33:52;94603.12;;;20.18;32.92
77366;BME280;66430;50.182;11.704;2023-05-23T12:36:15;94607.41;;;20.51;31.55
77366;BME280;66430;50.182;11.704;2023-05-23T12:38:41;94611.04;;;20.53;30.98
77366;BME280;66430;50.182;11.704;2023-05-23T12:41:09;94609.56;;;20.26;31.40
77366;BME280;66430;50.182;11.704;2023-05-23T12:43:30;94614.88;;;20.20;31.94
77366;BME280;66430;50.182;11.704;2023-05-23T12:45:55;94615.52;;;20.15;31.76